Terminal Aerodrome Forecast
Issued by NWS Chicago, IL

Home | Current Version | Previous Version | Text Only | Print | Product List | Glossary On
Versions: 1 2 3 4 5 6 7 8 9 10 11 12 13 14 15 16 17 18 19 20 21 22 23 24 25
776
FTUS43 KLOT 271138 CCA
TAFRFD
TAF COR
KRFD 271138Z 2712/2812 19005KT P6SM VCSH SCT025 BKN150
     FM271400 19011KT P6SM VCSH SCT035 BKN250
     FM272100 18010KT P6SM VCTS BKN040CB BKN250 PROB30 2721/2724 4SM
      TSRA SCT030 OVC040CB
     FM280000 18009KT P6SM SCT010 OVC020=

USA.gov is the U.S. government's official web portal to all federal, state and local government web resources and services.